Time;durP1;ratioP1;P1;durP2;ratioP2;P2;SDS_P1;SDS_P2;PMS_P1;PMS_P2;Temp;Humidity;BMP_temperature;BMP_pressure;BME280_temperature;BME280_humidity;BME280_pressure;Samples;Min_cycle;Max_cycle;Signal;HPM_P1;HPM_P2
2023/03/31 00:00:59;;;;;;;6.70;1.90;;;;;;;11.84;84.51;97493.53;5056253;28;20205;-76
2023/03/31 00:03:26;;;;;;;5.43;1.70;;;;;;;11.89;84.85;97493.63;5055860;28;20755;-76
2023/03/31 00:05:58;;;;;;;4.30;1.63;;;;;;;11.91;83.93;97499.50;5056075;28;20212;-76
2023/03/31 00:08:34;;;;;;;4.00;1.70;;;;;;;11.84;84.97;97490.88;5038354;28;20207;-76
2023/03/31 00:11:03;;;;;;;4.80;1.63;;;;;;;11.82;85.14;97492.94;5056107;28;20282;-76
2023/03/31 00:13:31;;;;;;;4.83;1.60;;;;;;;11.79;85.04;97480.94;5054811;28;20226;-76
2023/03/31 00:16:00;;;;;;;2.97;1.53;;;;;;;11.82;84.61;97477.78;5055945;28;20205;-76
2023/03/31 00:18:28;;;;;;;3.53;1.50;;;;;;;11.83;84.45;97467.94;5055491;28;20700;-76
2023/03/31 00:21:07;;;;;;;2.20;1.30;;;;;;;11.68;85.74;97462.34;5056022;28;20212;-76
2023/03/31 00:23:33;;;;;;;6.03;1.73;;;;;;;11.60;86.56;97454.75;5055513;28;20235;-77
2023/03/31 00:25:59;;;;;;;4.00;1.63;;;;;;;11.69;85.44;97466.63;5055640;28;20209;-77
2023/03/31 00:28:26;;;;;;;5.33;1.50;;;;;;;11.82;83.89;97451.16;5055278;28;20198;-77
2023/03/31 00:30:52;;;;;;;7.13;1.80;;;;;;;11.89;83.68;97451.78;5055680;28;20201;-77
2023/03/31 00:33:20;;;;;;;6.10;1.70;;;;;;;11.97;82.92;97443.41;5055271;28;20238;-77
2023/03/31 00:35:51;;;;;;;5.40;1.50;;;;;;;11.96;82.94;97436.47;5055560;28;20211;-77
2023/03/31 00:38:20;;;;;;;4.40;1.90;;;;;;;12.02;82.93;97432.03;5056038;28;20205;-76
2023/03/31 00:40:47;;;;;;;6.33;2.07;;;;;;;11.94;83.51;97433.22;5055130;28;20576;-76
2023/03/31 00:43:35;;;;;;;3.73;1.70;;;;;;;12.03;82.82;97423.78;5055338;28;20227;-76
2023/03/31 00:46:30;;;;;;;8.23;2.10;;;;;;;11.91;85.09;97427.59;5055378;28;20195;-76
2023/03/31 00:48:58;;;;;;;5.37;1.73;;;;;;;11.93;83.35;97415.63;5055384;28;20196;-76
2023/03/31 00:51:27;;;;;;;4.73;1.50;;;;;;;11.92;83.93;97411.38;5055009;28;20673;-77
2023/03/31 00:53:58;;;;;;;4.43;1.93;;;;;;;11.95;83.64;97418.06;5054841;28;20222;-76
2023/03/31 00:56:28;;;;;;;6.30;2.10;;;;;;;11.98;83.13;97421.03;5055260;28;20281;-76
2023/03/31 00:59:00;;;;;;;4.33;1.87;;;;;;;12.02;82.80;97421.38;5054878;28;20215;-77
2023/03/31 01:01:29;;;;;;;6.17;1.90;;;;;;;12.02;83.19;97424.84;5054853;28;20628;-75
2023/03/31 01:03:58;;;;;;;4.77;1.83;;;;;;;12.10;81.80;97411.13;5055014;28;20284;-76
2023/03/31 01:06:25;;;;;;;6.50;2.17;;;;;;;12.10;81.53;97412.97;5038056;28;20214;-76
2023/03/31 01:08:52;;;;;;;4.80;1.87;;;;;;;12.08;81.77;97415.06;5054977;28;20284;-77
2023/03/31 01:11:22;;;;;;;4.27;1.80;;;;;;;12.04;81.97;97404.09;5054895;28;20206;-76
2023/03/31 01:13:54;;;;;;;6.67;2.00;;;;;;;12.09;81.56;97404.19;5054814;28;20257;-77
2023/03/31 01:16:22;;;;;;;4.73;1.80;;;;;;;12.02;82.42;97395.53;5054855;28;20189;-76
2023/03/31 01:18:50;;;;;;;6.10;1.80;;;;;;;12.02;82.59;97397.41;5054576;28;20232;-77
2023/03/31 01:21:29;;;;;;;4.13;1.87;;;;;;;11.98;81.71;97382.97;5054617;28;20243;-76
2023/03/31 01:24:34;;;;;;;5.27;1.83;;;;;;;12.00;81.67;97367.53;5054395;28;20236;-76
2023/03/31 01:27:10;;;;;;;4.57;1.80;;;;;;;11.95;82.01;97351.47;5054265;28;20735;-77
2023/03/31 01:30:15;;;;;;;5.20;1.90;;;;;;;11.92;81.90;97355.44;5054539;28;20212;-76
2023/03/31 01:32:45;;;;;;;6.10;1.73;;;;;;;11.89;82.17;97352.47;5054205;28;20232;-76
2023/03/31 01:35:54;;;;;;;5.03;1.67;;;;;;;11.89;82.64;97352.47;5054131;28;20251;-76
2023/03/31 01:38:49;;;;;;;5.07;1.93;;;;;;;11.96;81.29;97359.22;5054357;28;20216;-77
2023/03/31 01:41:21;;;;;;;3.87;1.57;;;;;;;12.01;81.03;97361.97;5039336;28;20275;-76
2023/03/31 01:44:16;;;;;;;5.17;1.80;;;;;;;11.94;82.41;97358.66;5054283;28;20225;-76
2023/03/31 01:47:06;;;;;;;5.53;1.53;;;;;;;12.08;79.63;97362.59;5054267;28;20193;-76
2023/03/31 01:49:47;;;;;;;6.23;1.83;;;;;;;12.45;76.24;97370.81;5054214;28;20189;-76
2023/03/31 01:52:26;;;;;;;8.03;1.90;;;;;;;12.36;76.65;97378.44;5053820;28;20226;-77
2023/03/31 01:55:07;;;;;;;3.87;1.60;;;;;;;12.31;78.63;97372.25;5036422;28;20203;-77
2023/03/31 01:57:35;;;;;;;3.67;1.70;;;;;;;12.25;79.17;97386.56;5054541;28;20222;-77
2023/03/31 02:00:15;;;;;;;3.67;1.70;;;;;;;12.14;81.01;97388.25;5053981;28;20204;-76
2023/03/31 02:02:59;;;;;;;7.77;1.87;;;;;;;12.12;80.96;97382.34;5053890;28;20310;-77
2023/03/31 02:05:31;;;;;;;3.80;1.40;;;;;;;12.12;79.15;97379.69;5053632;28;20659;-76
2023/03/31 02:08:04;;;;;;;6.67;1.70;;;;;;;12.07;80.12;97382.28;5053894;28;20198;-76
2023/03/31 02:10:33;;;;;;;3.40;1.40;;;;;;;12.05;78.49;97379.06;5053885;28;20198;-76
2023/03/31 02:13:02;;;;;;;4.40;1.30;;;;;;;12.05;77.70;97375.59;5053723;28;20223;-75
2023/03/31 02:15:35;;;;;;;5.43;1.90;;;;;;;12.05;78.19;97370.25;5053708;28;20213;-76
2023/03/31 02:18:04;;;;;;;3.00;1.40;;;;;;;11.93;80.93;97365.03;5036099;28;20304;-76
2023/03/31 02:20:32;;;;;;;3.90;1.87;;;;;;;11.80;83.02;97353.91;5053708;28;20205;-76
2023/03/31 02:22:59;;;;;;;6.33;1.30;;;;;;;11.71;84.69;97348.19;5053554;28;20221;-77
2023/03/31 02:25:36;;;;;;;5.03;1.80;;;;;;;11.61;87.77;97339.25;5053619;28;20575;-77
2023/03/31 02:28:09;;;;;;;2.37;1.37;;;;;;;11.47;90.99;97333.41;5053608;28;20190;-77
2023/03/31 02:31:02;;;;;;;8.87;1.97;;;;;;;11.28;96.88;97334.69;5053243;28;20200;-77
2023/03/31 02:33:30;;;;;;;4.80;1.80;;;;;;;11.06;100.00;97331.09;5025841;28;20587;-77
2023/03/31 02:35:58;;;;;;;4.80;1.83;;;;;;;11.13;97.52;97323.78;5052553;28;20209;-77
2023/03/31 02:38:25;;;;;;;5.27;1.43;;;;;;;11.10;100.00;97314.41;5053400;28;20221;-77
2023/03/31 02:40:51;;;;;;;9.27;1.80;;;;;;;11.05;99.82;97316.97;5035798;28;20227;-77
2023/03/31 02:43:18;;;;;;;3.77;1.70;;;;;;;11.03;100.00;97294.31;5053318;28;20236;-77
2023/03/31 02:45:48;;;;;;;5.80;2.10;;;;;;;10.98;100.00;97265.81;5053358;28;20200;-77
2023/03/31 02:48:19;;;;;;;6.73;1.77;;;;;;;10.93;100.00;97267.56;5053034;28;20208;-77
2023/03/31 02:50:58;;;;;;;4.77;2.03;;;;;;;10.91;100.00;97240.41;5053423;28;20210;-77
2023/03/31 02:53:55;;;;;;;4.87;1.77;;;;;;;10.91;100.00;97235.09;5053269;28;20249;-77
2023/03/31 02:56:52;;;;;;;4.73;1.70;;;;;;;10.87;100.00;97237.41;5052845;28;20194;-77
2023/03/31 02:59:35;;;;;;;4.63;1.70;;;;;;;10.84;100.00;97231.78;5053516;28;20220;-76
2023/03/31 03:02:08;;;;;;;5.50;1.87;;;;;;;10.79;100.00;97223.72;5036129;28;20190;-77
2023/03/31 03:05:08;;;;;;;4.50;1.87;;;;;;;10.81;100.00;97214.44;5052820;28;20205;-77
2023/03/31 03:07:37;;;;;;;2.43;1.60;;;;;;;10.86;100.00;97200.47;5052945;28;20193;-77
2023/03/31 03:10:15;;;;;;;4.23;1.70;;;;;;;10.90;100.00;97194.41;5052781;28;20210;-77
2023/03/31 03:13:14;;;;;;;4.47;1.90;;;;;;;10.78;100.00;97182.22;5052551;28;20221;-77
2023/03/31 03:15:51;;;;;;;5.00;1.90;;;;;;;10.75;100.00;97175.56;5037956;28;20299;-77
2023/03/31 03:18:19;;;;;;;3.40;1.80;;;;;;;10.75;100.00;97164.09;5052458;28;20230;-77
2023/03/31 03:20:48;;;;;;;6.77;2.00;;;;;;;10.73;100.00;97155.56;5052531;28;20209;-77
2023/03/31 03:23:16;;;;;;;4.37;1.97;;;;;;;10.67;100.00;97148.53;5052338;28;20229;-77
2023/03/31 03:25:43;;;;;;;4.97;1.60;;;;;;;10.68;100.00;97142.19;5052743;28;20259;-77
2023/03/31 03:28:10;;;;;;;6.53;2.20;;;;;;;10.74;100.00;97125.28;5052811;28;20233;-77
2023/03/31 03:30:37;;;;;;;4.97;2.03;;;;;;;10.68;100.00;97123.59;5052695;28;20201;-77
2023/03/31 03:33:05;;;;;;;6.43;1.97;;;;;;;10.60;100.00;97118.69;5052281;28;20234;-77
2023/03/31 03:35:32;;;;;;;8.93;2.23;;;;;;;10.56;100.00;97110.38;5052246;28;20269;-77
2023/03/31 03:37:59;;;;;;;5.80;2.30;;;;;;;10.50;100.00;97113.19;5052543;28;20270;-77
2023/03/31 03:40:25;;;;;;;7.37;2.07;;;;;;;10.44;100.00;97103.50;5052557;28;20235;-77
2023/03/31 03:42:52;;;;;;;5.17;1.87;;;;;;;10.45;100.00;97107.81;5052422;28;20229;-77
2023/03/31 03:45:18;;;;;;;4.67;2.00;;;;;;;10.58;100.00;97100.31;5052155;28;20660;-77
2023/03/31 03:47:44;;;;;;;7.17;2.10;;;;;;;10.59;100.00;97103.78;5053839;28;20201;-77
2023/03/31 03:50:12;;;;;;;3.17;2.00;;;;;;;10.60;100.00;97092.09;5056147;28;20212;-77
2023/03/31 03:52:39;;;;;;;3.40;1.70;;;;;;;10.54;100.00;97082.44;5056623;28;20559;-77
2023/03/31 03:55:06;;;;;;;2.50;1.60;;;;;;;10.52;100.00;97071.22;5055935;28;20209;-77
2023/03/31 03:57:32;;;;;;;3.93;1.97;;;;;;;10.51;100.00;97066.97;5055801;28;20212;-77
2023/03/31 03:59:58;;;;;;;4.33;2.00;;;;;;;10.51;100.00;97057.13;5055594;28;20206;-77
2023/03/31 04:02:27;;;;;;;5.83;1.87;;;;;;;10.57;100.00;97045.56;5055637;28;20225;-77
2023/03/31 04:04:53;;;;;;;3.10;1.90;;;;;;;10.66;100.00;97035.31;5055734;28;20256;-77
2023/03/31 04:07:20;;;;;;;3.60;1.80;;;;;;;10.55;100.00;97039.66;5055690;28;20201;-77
2023/03/31 04:09:46;;;;;;;4.53;2.20;;;;;;;10.54;100.00;97029.28;5055762;28;20203;-77
2023/03/31 04:12:12;;;;;;;4.63;2.00;;;;;;;10.46;100.00;97016.41;5055326;28;20232;-77
2023/03/31 04:14:39;;;;;;;4.53;2.03;;;;;;;10.48;100.00;97020.44;5055318;28;20215;-77
2023/03/31 04:17:05;;;;;;;3.50;2.00;;;;;;;10.24;100.00;97012.88;5055167;28;20205;-77
2023/03/31 04:19:31;;;;;;;8.27;2.40;;;;;;;10.24;100.00;97004.91;5054901;28;20221;-77
2023/03/31 04:22:01;;;;;;;4.73;2.27;;;;;;;10.27;100.00;97001.78;5055294;28;20296;-77
2023/03/31 04:24:31;;;;;;;5.53;2.47;;;;;;;10.21;100.00;96987.59;5055401;28;20209;-77
2023/03/31 04:26:59;;;;;;;4.80;1.90;;;;;;;10.15;100.00;96979.81;5055414;28;20212;-77
2023/03/31 04:29:26;;;;;;;6.30;2.30;;;;;;;10.16;100.00;96976.09;5055322;28;20201;-77
2023/03/31 04:31:57;;;;;;;3.90;2.03;;;;;;;10.25;100.00;96978.13;5054832;28;20669;-78
2023/03/31 04:34:25;;;;;;;6.10;2.40;;;;;;;10.30;100.00;96982.69;5055258;28;20193;-77
2023/03/31 04:36:55;;;;;;;6.13;2.53;;;;;;;10.34;100.00;96989.13;5056182;28;20202;-77
2023/03/31 04:39:25;;;;;;;6.10;2.77;;;;;;;10.38;100.00;96988.41;5054850;28;20224;-77
2023/03/31 04:41:53;;;;;;;5.47;2.33;;;;;;;10.37;100.00;96988.66;5054613;28;20703;-77
2023/03/31 04:44:19;;;;;;;3.80;2.33;;;;;;;10.47;100.00;96986.94;5054827;28;20215;-77
2023/03/31 04:46:45;;;;;;;6.77;2.60;;;;;;;10.48;100.00;96983.22;5054916;28;20281;-77
2023/03/31 04:49:12;;;;;;;7.83;2.80;;;;;;;10.58;100.00;96955.97;5054635;28;20205;-77
2023/03/31 04:51:38;;;;;;;4.40;2.43;;;;;;;10.55;100.00;96945.88;5054650;28;20212;-77
2023/03/31 04:54:04;;;;;;;4.93;2.57;;;;;;;10.58;100.00;96948.00;5054424;28;20228;-77
2023/03/31 04:56:31;;;;;;;6.60;2.57;;;;;;;10.64;100.00;96949.72;5054721;28;20210;-77
2023/03/31 04:58:57;;;;;;;5.47;2.73;;;;;;;10.57;100.00;96943.75;5054043;28;20247;-77
2023/03/31 05:01:24;;;;;;;5.67;2.60;;;;;;;10.57;100.00;96951.72;5054296;28;20210;-77
2023/03/31 05:03:50;;;;;;;4.33;2.53;;;;;;;10.51;100.00;96950.06;5054421;28;20221;-77
2023/03/31 05:06:17;;;;;;;5.03;2.57;;;;;;;10.52;100.00;96949.00;5054479;28;20296;-78
2023/03/31 05:08:44;;;;;;;6.07;2.63;;;;;;;10.46;100.00;96944.69;5054691;28;20212;-77
2023/03/31 05:11:10;;;;;;;8.17;2.63;;;;;;;10.52;100.00;96938.38;5054589;28;20202;-77
2023/03/31 05:13:37;;;;;;;5.37;2.50;;;;;;;10.53;100.00;96945.28;5054110;28;20267;-77
2023/03/31 05:16:13;;;;;;;8.67;2.90;;;;;;;10.50;100.00;96965.19;5053803;28;20213;-77
2023/03/31 05:18:40;;;;;;;7.20;2.77;;;;;;;10.41;100.00;96971.19;5054422;28;20217;-77
2023/03/31 05:21:17;;;;;;;9.20;3.00;;;;;;;10.33;100.00;96982.22;5054349;28;20205;-77
2023/03/31 05:23:45;;;;;;;7.23;2.93;;;;;;;10.22;100.00;96988.38;5054213;28;20231;-77
2023/03/31 05:26:12;;;;;;;9.13;3.70;;;;;;;10.15;100.00;97009.00;5054175;28;20208;-77
2023/03/31 05:28:39;;;;;;;11.33;3.77;;;;;;;10.04;100.00;97012.50;5054257;28;20216;-77
2023/03/31 05:31:06;;;;;;;9.40;3.23;;;;;;;9.97;100.00;97011.88;5054137;28;20208;-76
2023/03/31 05:33:36;;;;;;;11.83;4.00;;;;;;;9.93;100.00;97000.94;5053497;28;20232;-76
2023/03/31 05:36:02;;;;;;;7.60;3.40;;;;;;;9.79;100.00;96994.31;5053963;28;20201;-76
2023/03/31 05:38:30;;;;;;;8.53;3.83;;;;;;;9.75;100.00;96997.69;5054468;28;20302;-75
2023/03/31 05:40:56;;;;;;;8.53;3.80;;;;;;;9.71;100.00;96983.28;5053777;28;20379;-75
2023/03/31 05:43:23;;;;;;;6.87;3.50;;;;;;;9.64;100.00;96988.72;5053729;28;20274;-75
2023/03/31 05:45:51;;;;;;;7.23;3.60;;;;;;;9.61;100.00;96975.13;5053415;28;20205;-75
2023/03/31 05:48:18;;;;;;;9.60;4.07;;;;;;;9.58;100.00;96979.06;5053784;28;20209;-75
2023/03/31 05:50:48;;;;;;;6.90;3.33;;;;;;;9.67;100.00;96968.88;5053575;28;20212;-76
2023/03/31 05:53:19;;;;;;;7.33;4.10;;;;;;;9.60;100.00;96957.63;5053772;28;20231;-76
2023/03/31 05:55:47;;;;;;;13.73;4.13;;;;;;;9.71;100.00;96938.97;5053356;28;20276;-76
2023/03/31 05:58:14;;;;;;;11.23;4.10;;;;;;;9.57;100.00;96931.56;5053509;28;20209;-76
2023/03/31 06:00:43;;;;;;;8.23;3.83;;;;;;;9.56;100.00;96925.44;5053811;28;20207;-76
2023/03/31 06:03:10;;;;;;;9.23;4.00;;;;;;;9.51;100.00;96920.03;5052677;28;20225;-76
2023/03/31 06:05:38;;;;;;;10.27;3.93;;;;;;;9.50;100.00;96928.25;5052787;28;20209;-75
2023/03/31 06:08:06;;;;;;;8.20;4.00;;;;;;;9.52;100.00;96918.19;5051916;28;20562;-76
2023/03/31 06:10:34;;;;;;;8.97;3.90;;;;;;;9.57;100.00;96905.03;5052907;28;20240;-76
2023/03/31 06:13:03;;;;;;;8.67;4.27;;;;;;;9.53;100.00;96909.19;5052708;28;20225;-76
2023/03/31 06:15:31;;;;;;;5.00;3.50;;;;;;;9.51;100.00;96906.00;5052559;28;20259;-76
2023/03/31 06:18:00;;;;;;;8.13;4.20;;;;;;;9.55;100.00;96907.13;5052705;28;20678;-76
2023/03/31 06:20:28;;;;;;;10.50;4.30;;;;;;;9.53;100.00;96893.28;5052629;28;20227;-76
2023/03/31 06:22:55;;;;;;;7.83;4.57;;;;;;;9.51;100.00;96890.06;5052749;28;20591;-76
2023/03/31 06:25:22;;;;;;;10.93;4.43;;;;;;;9.55;100.00;96876.06;5052980;28;20209;-76
2023/03/31 06:27:51;;;;;;;11.97;4.37;;;;;;;9.55;100.00;96875.28;5053085;28;20594;-76
2023/03/31 06:30:20;;;;;;;8.37;4.33;;;;;;;9.58;100.00;96874.78;5052882;28;20219;-76
2023/03/31 06:32:48;;;;;;;11.27;5.10;;;;;;;9.63;100.00;96873.03;5052392;28;20672;-76
2023/03/31 06:35:16;;;;;;;11.27;5.03;;;;;;;9.57;100.00;96865.22;5053005;28;20210;-76
2023/03/31 06:37:47;;;;;;;9.10;4.60;;;;;;;9.60;100.00;96878.03;5052716;28;20304;-76
2023/03/31 06:40:16;;;;;;;10.47;5.23;;;;;;;9.59;100.00;96873.75;5052705;28;20209;-76
2023/03/31 06:42:46;;;;;;;10.90;5.77;;;;;;;9.60;100.00;96870.06;5052583;28;20225;-72
2023/03/31 06:45:12;;;;;;;7.13;5.30;;;;;;;9.63;100.00;96878.34;5052658;28;20576;-72
2023/03/31 06:47:47;;;;;;;12.53;5.37;;;;;;;9.59;100.00;96876.41;5053093;28;20231;-76
2023/03/31 06:50:13;;;;;;;9.30;4.20;;;;;;;9.61;100.00;96879.63;5052703;28;20185;-76
2023/03/31 06:52:41;;;;;;;8.80;5.37;;;;;;;9.56;100.00;96884.84;5052555;28;20720;-76
2023/03/31 06:55:14;;;;;;;10.17;5.17;;;;;;;9.56;100.00;96892.81;5053102;28;20210;-76
2023/03/31 06:57:43;;;;;;;11.33;5.10;;;;;;;9.55;100.00;96907.91;5052576;28;20287;-76
2023/03/31 07:00:12;;;;;;;10.67;5.57;;;;;;;9.50;100.00;96920.31;5052294;28;20779;-75
2023/03/31 07:02:44;;;;;;;13.50;5.63;;;;;;;9.46;100.00;96929.78;5053147;28;20221;-76
2023/03/31 07:05:15;;;;;;;10.77;5.27;;;;;;;9.46;100.00;96951.00;5052802;28;20353;-75
2023/03/31 07:07:42;;;;;;;11.07;5.53;;;;;;;9.53;100.00;96954.28;5052218;28;20196;-75
2023/03/31 07:10:11;;;;;;;9.90;5.10;;;;;;;9.54;100.00;96961.19;5052946;28;20212;-75
2023/03/31 07:12:38;;;;;;;7.47;4.67;;;;;;;9.53;100.00;96941.84;5052470;28;20707;-75
2023/03/31 07:15:05;;;;;;;10.10;5.10;;;;;;;9.49;100.00;96942.56;5052704;28;20201;-75
2023/03/31 07:17:31;;;;;;;8.90;4.47;;;;;;;9.64;100.00;96879.16;5052495;28;20759;-75
2023/03/31 07:20:00;;;;;;;7.63;4.07;;;;;;;9.68;100.00;96859.06;5052727;28;20233;-75
2023/03/31 07:22:33;;;;;;;8.43;4.37;;;;;;;9.74;100.00;96842.94;5053087;28;20224;-75
2023/03/31 07:25:06;;;;;;;8.43;3.80;;;;;;;9.83;100.00;96848.66;5056104;28;20204;-75
2023/03/31 07:27:34;;;;;;;5.00;2.77;;;;;;;9.88;100.00;96846.06;5056699;28;20190;-74
2023/03/31 07:30:01;;;;;;;5.87;2.80;;;;;;;9.89;100.00;96840.53;5056538;28;20201;-74
2023/03/31 07:32:32;;;;;;;5.10;2.80;;;;;;;9.94;100.00;96839.78;5056014;28;20235;-75
2023/03/31 07:35:05;;;;;;;5.17;2.40;;;;;;;9.95;100.00;96855.47;5055937;28;20203;-75
2023/03/31 07:37:46;;;;;;;3.70;2.13;;;;;;;10.00;100.00;96852.09;5055624;28;20189;-75
2023/03/31 07:40:26;;;;;;;5.47;2.27;;;;;;;9.97;100.00;96856.03;5056023;28;20262;-75
2023/03/31 07:42:59;;;;;;;3.60;2.10;;;;;;;10.02;100.00;96855.28;5055478;28;20315;-75
2023/03/31 07:45:26;;;;;;;4.17;2.37;;;;;;;10.01;100.00;96859.00;5055806;28;20196;-74
2023/03/31 07:47:53;;;;;;;3.43;1.80;;;;;;;10.16;100.00;96843.31;5056266;28;20208;-75
2023/03/31 07:50:21;;;;;;;4.20;2.37;;;;;;;10.40;100.00;96844.69;5056282;28;20227;-75
2023/03/31 07:52:48;;;;;;;2.17;1.30;;;;;;;10.53;100.00;96844.31;5056138;28;20335;-73
2023/03/31 07:55:16;;;;;;;3.37;1.33;;;;;;;10.60;100.00;96837.75;5055772;28;20682;-75
2023/03/31 07:57:45;;;;;;;1.80;1.30;;;;;;;10.47;100.00;96829.38;5055524;28;20267;-74
2023/03/31 08:00:12;;;;;;;2.87;1.17;;;;;;;10.41;100.00;96830.38;5056616;28;20222;-74
2023/03/31 08:02:41;;;;;;;2.63;1.10;;;;;;;10.44;100.00;96827.19;5056043;28;20224;-74
2023/03/31 08:05:08;;;;;;;3.67;1.30;;;;;;;10.60;100.00;96831.66;5055650;28;20205;-74
2023/03/31 08:07:37;;;;;;;2.10;1.17;;;;;;;10.81;100.00;96849.41;5055333;28;20237;-73
2023/03/31 08:10:08;;;;;;;0.90;0.87;;;;;;;10.92;100.00;96837.84;5055115;28;20661;-74
2023/03/31 08:12:35;;;;;;;1.00;0.90;;;;;;;11.12;100.00;96842.59;5055325;28;20225;-74
2023/03/31 08:15:01;;;;;;;3.57;1.23;;;;;;;11.19;100.00;96830.69;5055429;28;20205;-75
2023/03/31 08:17:28;;;;;;;2.17;0.83;;;;;;;11.25;100.00;96834.97;5054832;28;20205;-74
2023/03/31 08:19:54;;;;;;;2.57;1.07;;;;;;;11.32;100.00;96823.06;5054754;28;20696;-74
2023/03/31 08:22:22;;;;;;;1.80;0.90;;;;;;;11.45;100.00;96832.53;5054851;28;20738;-74
2023/03/31 08:24:48;;;;;;;0.97;0.97;;;;;;;11.46;100.00;96826.13;5055448;28;20212;-74
2023/03/31 08:27:16;;;;;;;1.93;0.80;;;;;;;11.50;100.00;96823.75;5055577;28;20201;-74
2023/03/31 08:29:42;;;;;;;1.10;0.90;;;;;;;11.58;100.00;96821.41;5055075;28;20545;-74
2023/03/31 08:32:09;;;;;;;2.00;1.00;;;;;;;11.69;100.00;96817.81;5054807;28;20727;-75
2023/03/31 08:34:36;;;;;;;1.93;1.00;;;;;;;11.79;100.00;96801.09;5054096;28;20189;-75
2023/03/31 08:37:03;;;;;;;2.80;1.40;;;;;;;11.81;100.00;96810.47;5055167;28;20201;-76
2023/03/31 08:39:30;;;;;;;1.93;1.00;;;;;;;12.00;100.00;96819.63;5054808;28;20221;-75
2023/03/31 08:42:02;;;;;;;1.50;0.83;;;;;;;12.07;100.00;96816.75;5054753;28;20201;-75
2023/03/31 08:44:43;;;;;;;6.63;1.20;;;;;;;12.25;100.00;96802.97;5055003;28;20690;-75
2023/03/31 08:47:17;;;;;;;1.43;0.87;;;;;;;12.26;100.00;96813.34;5054914;28;20644;-76
2023/03/31 08:49:51;;;;;;;3.57;1.10;;;;;;;12.35;100.00;96811.81;5054858;28;20652;-76
2023/03/31 08:52:28;;;;;;;2.47;0.90;;;;;;;12.58;100.00;96811.41;5055023;28;20229;-74
2023/03/31 08:54:59;;;;;;;4.10;1.17;;;;;;;12.67;100.00;96822.34;5021459;28;20212;-76
2023/03/31 08:57:32;;;;;;;3.17;1.10;;;;;;;12.76;99.68;96812.78;5054526;28;20701;-76
2023/03/31 09:00:05;;;;;;;2.97;1.07;;;;;;;12.80;98.85;96803.19;5055458;28;20216;-76
2023/03/31 09:02:48;;;;;;;1.90;1.03;;;;;;;13.03;97.84;96811.53;5054531;28;20227;-75
2023/03/31 09:05:20;;;;;;;2.37;1.30;;;;;;;13.06;100.00;96808.34;5054691;28;20188;-75
2023/03/31 09:08:27;;;;;;;2.93;1.13;;;;;;;13.27;100.00;96801.97;5054686;28;20194;-76
2023/03/31 09:10:58;;;;;;;3.67;1.23;;;;;;;13.64;97.36;96797.16;5040366;28;20302;-76
2023/03/31 09:13:51;;;;;;;4.77;1.50;;;;;;;13.68;88.80;96782.22;5055714;28;20230;-74
2023/03/31 09:16:28;;;;;;;2.17;1.10;;;;;;;13.61;86.79;96792.34;5054356;28;20196;-76
2023/03/31 09:19:00;;;;;;;5.93;1.47;;;;;;;13.75;85.56;96806.75;5054352;28;20205;-76
2023/03/31 09:21:35;;;;;;;4.67;1.43;;;;;;;13.65;79.94;96774.72;5054403;28;20204;-74
2023/03/31 09:24:15;;;;;;;3.67;1.40;;;;;;;13.84;83.90;96783.00;5054246;28;20227;-75
2023/03/31 09:26:46;;;;;;;3.87;1.20;;;;;;;13.72;80.70;96795.81;5054386;28;20198;-76
2023/03/31 09:29:34;;;;;;;2.20;0.97;;;;;;;13.90;80.23;96796.06;5036679;28;20193;-75
2023/03/31 09:32:30;;;;;;;3.33;1.03;;;;;;;13.94;78.33;96790.97;5054558;28;20200;-76
2023/03/31 09:35:01;;;;;;;4.53;1.03;;;;;;;13.85;76.74;96790.75;5054238;28;20239;-75
2023/03/31 09:37:32;;;;;;;3.40;1.10;;;;;;;13.73;76.01;96802.75;5054210;28;20189;-76
2023/03/31 09:40:00;;;;;;;3.00;1.33;;;;;;;13.65;78.21;96796.09;5054040;28;20232;-76
2023/03/31 09:42:27;;;;;;;3.73;1.17;;;;;;;13.61;75.17;96819.06;5053627;28;20244;-76
2023/03/31 09:44:53;;;;;;;2.93;1.10;;;;;;;13.63;76.95;96800.09;5053816;28;20205;-76
2023/03/31 09:47:37;;;;;;;3.40;1.40;;;;;;;13.46;73.43;96811.03;5053603;28;20645;-76
2023/03/31 09:50:05;;;;;;;3.70;1.37;;;;;;;13.53;73.44;96778.75;5053555;28;20699;-76
2023/03/31 09:52:39;;;;;;;2.77;0.93;;;;;;;13.64;71.65;96788.34;5054046;28;20731;-76
2023/03/31 09:55:46;;;;;;;3.83;1.27;;;;;;;13.96;69.63;96767.44;5053650;28;20603;-75
2023/03/31 09:58:15;;;;;;;3.83;1.20;;;;;;;14.29;68.37;96767.66;5023359;28;20201;-75
2023/03/31 10:00:44;;;;;;;5.87;1.83;;;;;;;14.59;70.56;96762.19;5053022;28;20810;-76
2023/03/31 10:03:13;;;;;;;4.60;1.30;;;;;;;14.82;72.54;96756.16;5053519;28;20225;-77
2023/03/31 10:05:51;;;;;;;4.17;1.30;;;;;;;14.96;65.27;96742.94;5036029;28;20231;-74
2023/03/31 10:08:17;;;;;;;3.00;1.33;;;;;;;14.88;65.34;96752.38;5036171;28;20200;-76
2023/03/31 10:10:51;;;;;;;4.53;1.30;;;;;;;14.79;67.75;96745.22;5053603;28;20205;-77
2023/03/31 10:13:20;;;;;;;3.63;1.30;;;;;;;14.93;67.10;96744.31;5053456;28;20228;-75
2023/03/31 10:15:47;;;;;;;3.27;1.40;;;;;;;14.62;65.65;96750.94;5053374;28;20205;-74
2023/03/31 10:18:16;;;;;;;5.63;1.87;;;;;;;14.58;65.70;96738.38;5053116;28;20205;-76
2023/03/31 10:20:51;;;;;;;4.73;1.60;;;;;;;14.77;66.13;96729.44;5053064;28;20225;-76
2023/03/31 10:23:37;;;;;;;4.90;1.57;;;;;;;14.88;63.88;96725.63;5053335;28;20221;-76
2023/03/31 10:26:04;;;;;;;6.53;1.83;;;;;;;15.05;64.53;96728.72;5053823;28;20204;-77
2023/03/31 10:28:34;;;;;;;5.03;1.83;;;;;;;15.17;67.13;96715.78;5052780;28;20669;-77
2023/03/31 10:31:01;;;;;;;5.87;1.30;;;;;;;15.34;60.56;96726.13;5054132;28;20212;-76
2023/03/31 10:33:33;;;;;;;4.93;1.77;;;;;;;14.98;60.39;96704.16;5053027;28;20331;-76
2023/03/31 10:36:03;;;;;;;3.13;1.37;;;;;;;15.10;62.57;96720.63;5052998;28;20289;-77
2023/03/31 10:38:34;;;;;;;3.43;1.40;;;;;;;15.13;62.32;96687.16;5052550;28;20209;-76
2023/03/31 10:41:01;;;;;;;5.30;1.57;;;;;;;15.12;62.20;96670.31;5034925;28;20209;-76
2023/03/31 10:43:42;;;;;;;6.17;1.50;;;;;;;15.30;61.27;96687.56;5052555;28;20699;-76
2023/03/31 10:46:09;;;;;;;5.60;1.70;;;;;;;15.64;60.51;96693.66;5052888;28;20193;-76
2023/03/31 10:48:39;;;;;;;3.83;1.57;;;;;;;15.57;59.77;96677.16;5052532;28;20281;-76
2023/03/31 10:51:15;;;;;;;3.57;1.40;;;;;;;15.29;58.65;96670.69;5053264;28;20201;-76
2023/03/31 10:53:46;;;;;;;5.40;1.50;;;;;;;15.22;58.39;96688.97;5052742;28;20225;-76
2023/03/31 10:56:35;;;;;;;5.47;1.43;;;;;;;15.08;58.66;96668.47;5053107;28;20193;-76
2023/03/31 10:59:38;;;;;;;4.50;1.37;;;;;;;15.44;59.57;96661.75;5056499;28;20201;-77
2023/03/31 11:02:14;;;;;;;5.17;1.53;;;;;;;15.13;57.52;96653.19;5056698;28;20201;-76
2023/03/31 11:04:56;;;;;;;5.23;1.70;;;;;;;15.00;56.25;96672.56;5057132;28;20239;-76
2023/03/31 11:07:49;;;;;;;6.53;1.83;;;;;;;14.92;56.18;96662.44;5039149;28;20200;-75
2023/03/31 11:10:41;;;;;;;3.93;1.60;;;;;;;14.96;57.18;96670.69;5057148;28;20190;-75
2023/03/31 11:13:12;;;;;;;3.70;1.60;;;;;;;14.68;58.06;96663.41;5056587;28;20315;-77
2023/03/31 11:15:45;;;;;;;4.17;1.67;;;;;;;14.71;58.09;96673.56;5056664;28;20189;-76
2023/03/31 11:18:35;;;;;;;5.63;1.30;;;;;;;14.35;65.96;96691.72;5056842;28;20197;-77
2023/03/31 11:21:20;;;;;;;5.47;1.07;;;;;;;13.69;71.99;96724.22;5056689;28;20220;-77
2023/03/31 11:23:58;;;;;;;3.27;1.00;;;;;;;10.84;100.00;96830.31;5056328;28;20236;-74
2023/03/31 11:26:43;;;;;;;2.23;0.70;;;;;;;9.62;100.00;96846.72;5056639;28;20192;-75
2023/03/31 11:29:44;;;;;;;0.77;0.70;;;;;;;9.21;100.00;96826.72;5056634;28;20205;-73
2023/03/31 11:32:33;;;;;;;0.73;0.50;;;;;;;9.26;100.00;96818.84;5055884;28;20711;-73
2023/03/31 11:35:13;;;;;;;0.67;0.50;;;;;;;9.38;100.00;96806.31;5056111;28;20188;-73
2023/03/31 11:37:54;;;;;;;1.77;0.53;;;;;;;9.37;100.00;96801.25;5056444;28;20189;-73
2023/03/31 11:40:23;;;;;;;0.63;0.50;;;;;;;9.41;100.00;96816.44;5056089;28;20217;-74
2023/03/31 11:43:03;;;;;;;2.17;0.60;;;;;;;9.52;100.00;96820.06;5056031;28;20222;-74
2023/03/31 11:45:37;;;;;;;0.83;0.50;;;;;;;9.61;100.00;96822.06;5056212;28;20186;-74
2023/03/31 11:48:14;;;;;;;1.13;0.53;;;;;;;9.66;100.00;96813.38;5056109;28;20282;-74
2023/03/31 11:50:44;;;;;;;0.33;0.30;;;;;;;9.81;100.00;96802.97;5056012;28;20197;-75
2023/03/31 11:53:19;;;;;;;0.87;0.50;;;;;;;9.76;100.00;96802.88;5055700;28;20229;-74